sensor_id;sensor_type;location;lat;lon;timestamp;P1;durP1;ratioP1;P2;durP2;ratioP2
54853;SDS011;40747;49.480;8.658;2023-04-25T00:00:27;3.80;;;1.80;;
54853;SDS011;40747;49.480;8.658;2023-04-25T00:02:53;2.67;;;2.00;;
54853;SDS011;40747;49.480;8.658;2023-04-25T00:05:20;1.65;;;1.33;;
54853;SDS011;40747;49.480;8.658;2023-04-25T00:07:47;4.13;;;2.00;;
54853;SDS011;40747;49.480;8.658;2023-04-25T00:10:13;4.47;;;2.30;;
54853;SDS011;40747;49.480;8.658;2023-04-25T00:12:39;3.35;;;2.22;;
54853;SDS011;40747;49.480;8.658;2023-04-25T00:15:05;3.03;;;1.90;;
54853;SDS011;40747;49.480;8.658;2023-04-25T00:17:31;3.60;;;1.80;;
54853;SDS011;40747;49.480;8.658;2023-04-25T00:19:56;3.20;;;1.52;;
54853;SDS011;40747;49.480;8.658;2023-04-25T00:22:23;3.47;;;2.15;;
54853;SDS011;40747;49.480;8.658;2023-04-25T00:24:48;2.67;;;1.90;;
54853;SDS011;40747;49.480;8.658;2023-04-25T00:27:14;4.47;;;1.88;;
54853;SDS011;40747;49.480;8.658;2023-04-25T00:29:39;4.35;;;1.88;;
54853;SDS011;40747;49.480;8.658;2023-04-25T00:32:05;3.22;;;2.25;;
54853;SDS011;40747;49.480;8.658;2023-04-25T00:34:30;2.42;;;1.63;;
54853;SDS011;40747;49.480;8.658;2023-04-25T00:36:55;4.28;;;2.33;;
54853;SDS011;40747;49.480;8.658;2023-04-25T00:39:21;5.82;;;2.08;;
54853;SDS011;40747;49.480;8.658;2023-04-25T00:41:47;2.25;;;1.85;;
54853;SDS011;40747;49.480;8.658;2023-04-25T00:44:13;3.10;;;1.70;;
54853;SDS011;40747;49.480;8.658;2023-04-25T00:46:41;3.03;;;2.00;;
54853;SDS011;40747;49.480;8.658;2023-04-25T00:49:07;2.65;;;2.00;;
54853;SDS011;40747;49.480;8.658;2023-04-25T00:51:32;4.60;;;2.22;;
54853;SDS011;40747;49.480;8.658;2023-04-25T00:53:58;3.88;;;2.25;;
54853;SDS011;40747;49.480;8.658;2023-04-25T00:56:24;2.58;;;1.80;;
54853;SDS011;40747;49.480;8.658;2023-04-25T00:58:50;3.30;;;1.90;;
54853;SDS011;40747;49.480;8.658;2023-04-25T01:01:19;2.53;;;1.60;;
54853;SDS011;40747;49.480;8.658;2023-04-25T01:03:45;4.47;;;2.67;;
54853;SDS011;40747;49.480;8.658;2023-04-25T01:06:11;6.03;;;2.45;;
54853;SDS011;40747;49.480;8.658;2023-04-25T01:08:37;4.20;;;1.85;;
54853;SDS011;40747;49.480;8.658;2023-04-25T01:11:04;7.53;;;3.60;;
54853;SDS011;40747;49.480;8.658;2023-04-25T01:13:30;2.88;;;1.90;;
54853;SDS011;40747;49.480;8.658;2023-04-25T01:15:57;4.45;;;2.97;;
54853;SDS011;40747;49.480;8.658;2023-04-25T01:18:23;3.70;;;1.75;;
54853;SDS011;40747;49.480;8.658;2023-04-25T01:20:50;3.58;;;2.47;;
54853;SDS011;40747;49.480;8.658;2023-04-25T01:23:17;4.05;;;2.67;;
54853;SDS011;40747;49.480;8.658;2023-04-25T01:25:43;3.03;;;2.40;;
54853;SDS011;40747;49.480;8.658;2023-04-25T01:28:10;3.53;;;2.00;;
54853;SDS011;40747;49.480;8.658;2023-04-25T01:30:35;3.00;;;1.92;;
54853;SDS011;40747;49.480;8.658;2023-04-25T01:33:01;2.53;;;1.98;;
54853;SDS011;40747;49.480;8.658;2023-04-25T01:35:29;2.22;;;1.88;;
54853;SDS011;40747;49.480;8.658;2023-04-25T01:37:54;2.80;;;1.83;;
54853;SDS011;40747;49.480;8.658;2023-04-25T01:40:20;3.85;;;2.13;;
54853;SDS011;40747;49.480;8.658;2023-04-25T01:42:46;4.55;;;2.10;;
54853;SDS011;40747;49.480;8.658;2023-04-25T01:45:12;4.22;;;2.30;;
54853;SDS011;40747;49.480;8.658;2023-04-25T01:47:38;4.13;;;2.42;;
54853;SDS011;40747;49.480;8.658;2023-04-25T01:50:08;4.07;;;2.97;;
54853;SDS011;40747;49.480;8.658;2023-04-25T01:52:34;2.70;;;1.85;;
54853;SDS011;40747;49.480;8.658;2023-04-25T01:55:00;2.95;;;1.98;;
54853;SDS011;40747;49.480;8.658;2023-04-25T01:57:27;4.03;;;2.47;;
54853;SDS011;40747;49.480;8.658;2023-04-25T01:59:54;3.53;;;2.50;;
54853;SDS011;40747;49.480;8.658;2023-04-25T02:02:24;3.47;;;2.53;;
54853;SDS011;40747;49.480;8.658;2023-04-25T02:04:50;2.83;;;2.22;;
54853;SDS011;40747;49.480;8.658;2023-04-25T02:07:15;3.10;;;2.28;;
54853;SDS011;40747;49.480;8.658;2023-04-25T02:09:40;2.70;;;2.05;;
54853;SDS011;40747;49.480;8.658;2023-04-25T02:12:07;3.58;;;2.45;;
54853;SDS011;40747;49.480;8.658;2023-04-25T02:14:33;4.32;;;2.35;;
54853;SDS011;40747;49.480;8.658;2023-04-25T02:16:59;4.65;;;2.83;;
54853;SDS011;40747;49.480;8.658;2023-04-25T02:19:24;5.18;;;2.55;;
54853;SDS011;40747;49.480;8.658;2023-04-25T02:21:50;5.25;;;2.38;;
54853;SDS011;40747;49.480;8.658;2023-04-25T02:24:15;6.53;;;3.28;;
54853;SDS011;40747;49.480;8.658;2023-04-25T02:26:41;7.80;;;2.38;;
54853;SDS011;40747;49.480;8.658;2023-04-25T02:29:06;4.35;;;3.17;;
54853;SDS011;40747;49.480;8.658;2023-04-25T02:31:32;5.25;;;3.05;;
54853;SDS011;40747;49.480;8.658;2023-04-25T02:33:57;5.30;;;2.72;;
54853;SDS011;40747;49.480;8.658;2023-04-25T02:36:22;5.75;;;2.53;;
54853;SDS011;40747;49.480;8.658;2023-04-25T02:38:48;8.40;;;3.17;;
54853;SDS011;40747;49.480;8.658;2023-04-25T02:41:14;4.95;;;3.53;;
54853;SDS011;40747;49.480;8.658;2023-04-25T02:43:39;7.28;;;4.45;;
54853;SDS011;40747;49.480;8.658;2023-04-25T02:46:05;4.85;;;3.45;;
54853;SDS011;40747;49.480;8.658;2023-04-25T02:48:30;6.80;;;4.07;;
54853;SDS011;40747;49.480;8.658;2023-04-25T02:50:56;3.90;;;2.70;;
54853;SDS011;40747;49.480;8.658;2023-04-25T02:53:21;4.97;;;3.45;;
54853;SDS011;40747;49.480;8.658;2023-04-25T02:55:46;7.97;;;3.70;;
54853;SDS011;40747;49.480;8.658;2023-04-25T02:58:12;6.38;;;4.30;;
54853;SDS011;40747;49.480;8.658;2023-04-25T03:00:37;7.32;;;4.05;;
54853;SDS011;40747;49.480;8.658;2023-04-25T03:03:02;5.80;;;3.85;;
54853;SDS011;40747;49.480;8.658;2023-04-25T03:05:27;6.78;;;3.60;;
54853;SDS011;40747;49.480;8.658;2023-04-25T03:07:53;6.07;;;3.55;;
54853;SDS011;40747;49.480;8.658;2023-04-25T03:10:18;9.60;;;4.28;;
54853;SDS011;40747;49.480;8.658;2023-04-25T03:12:43;7.18;;;3.63;;
54853;SDS011;40747;49.480;8.658;2023-04-25T03:15:09;7.85;;;4.32;;
54853;SDS011;40747;49.480;8.658;2023-04-25T03:17:34;5.28;;;3.53;;
54853;SDS011;40747;49.480;8.658;2023-04-25T03:20:00;8.00;;;4.28;;
54853;SDS011;40747;49.480;8.658;2023-04-25T03:22:26;7.28;;;4.30;;
54853;SDS011;40747;49.480;8.658;2023-04-25T03:24:51;7.72;;;3.97;;
54853;SDS011;40747;49.480;8.658;2023-04-25T03:27:17;6.65;;;3.88;;
54853;SDS011;40747;49.480;8.658;2023-04-25T03:29:42;10.05;;;5.32;;
54853;SDS011;40747;49.480;8.658;2023-04-25T03:32:07;8.30;;;3.80;;
54853;SDS011;40747;49.480;8.658;2023-04-25T03:34:33;6.72;;;4.10;;
54853;SDS011;40747;49.480;8.658;2023-04-25T03:36:58;4.55;;;3.38;;
54853;SDS011;40747;49.480;8.658;2023-04-25T03:39:24;8.07;;;4.63;;
54853;SDS011;40747;49.480;8.658;2023-04-25T03:41:50;11.55;;;4.20;;
54853;SDS011;40747;49.480;8.658;2023-04-25T03:44:15;9.32;;;5.22;;
54853;SDS011;40747;49.480;8.658;2023-04-25T03:46:40;8.45;;;4.47;;
54853;SDS011;40747;49.480;8.658;2023-04-25T03:49:06;8.32;;;4.50;;
54853;SDS011;40747;49.480;8.658;2023-04-25T03:51:31;8.88;;;5.00;;
54853;SDS011;40747;49.480;8.658;2023-04-25T03:53:57;7.53;;;4.40;;
54853;SDS011;40747;49.480;8.658;2023-04-25T03:56:23;6.93;;;3.83;;
54853;SDS011;40747;49.480;8.658;2023-04-25T03:58:48;8.23;;;5.15;;
54853;SDS011;40747;49.480;8.658;2023-04-25T04:01:14;7.97;;;4.90;;
54853;SDS011;40747;49.480;8.658;2023-04-25T04:03:39;11.73;;;4.65;;
54853;SDS011;40747;49.480;8.658;2023-04-25T04:06:05;6.47;;;4.15;;
54853;SDS011;40747;49.480;8.658;2023-04-25T04:08:32;8.98;;;5.05;;
54853;SDS011;40747;49.480;8.658;2023-04-25T04:10:58;9.77;;;5.50;;
54853;SDS011;40747;49.480;8.658;2023-04-25T04:13:25;11.25;;;5.22;;
54853;SDS011;40747;49.480;8.658;2023-04-25T04:15:51;10.00;;;4.88;;
54853;SDS011;40747;49.480;8.658;2023-04-25T04:18:17;7.30;;;4.85;;
54853;SDS011;40747;49.480;8.658;2023-04-25T04:20:42;9.48;;;4.50;;
54853;SDS011;40747;49.480;8.658;2023-04-25T04:23:07;9.43;;;4.43;;
54853;SDS011;40747;49.480;8.658;2023-04-25T04:25:32;10.15;;;5.70;;
54853;SDS011;40747;49.480;8.658;2023-04-25T04:27:59;11.32;;;6.22;;
54853;SDS011;40747;49.480;8.658;2023-04-25T04:30:26;11.02;;;6.45;;
54853;SDS011;40747;49.480;8.658;2023-04-25T04:32:54;10.65;;;5.88;;
54853;SDS011;40747;49.480;8.658;2023-04-25T04:35:20;9.43;;;5.38;;
54853;SDS011;40747;49.480;8.658;2023-04-25T04:37:47;10.43;;;5.70;;
54853;SDS011;40747;49.480;8.658;2023-04-25T04:40:13;9.65;;;4.90;;
54853;SDS011;40747;49.480;8.658;2023-04-25T04:42:40;9.45;;;4.70;;
54853;SDS011;40747;49.480;8.658;2023-04-25T04:45:10;11.13;;;5.63;;
54853;SDS011;40747;49.480;8.658;2023-04-25T04:47:36;8.60;;;5.53;;
54853;SDS011;40747;49.480;8.658;2023-04-25T04:50:02;14.27;;;6.32;;
54853;SDS011;40747;49.480;8.658;2023-04-25T04:52:29;9.10;;;5.13;;
54853;SDS011;40747;49.480;8.658;2023-04-25T04:54:54;8.57;;;5.00;;
54853;SDS011;40747;49.480;8.658;2023-04-25T04:57:20;8.82;;;5.22;;
54853;SDS011;40747;49.480;8.658;2023-04-25T04:59:45;8.95;;;5.85;;
54853;SDS011;40747;49.480;8.658;2023-04-25T05:02:10;7.78;;;4.43;;
54853;SDS011;40747;49.480;8.658;2023-04-25T05:04:36;7.72;;;4.20;;
54853;SDS011;40747;49.480;8.658;2023-04-25T05:07:01;8.80;;;5.60;;
54853;SDS011;40747;49.480;8.658;2023-04-25T05:09:27;12.13;;;6.88;;
54853;SDS011;40747;49.480;8.658;2023-04-25T05:11:52;11.07;;;5.45;;
54853;SDS011;40747;49.480;8.658;2023-04-25T05:14:17;5.97;;;4.22;;
54853;SDS011;40747;49.480;8.658;2023-04-25T05:16:43;11.73;;;4.80;;
54853;SDS011;40747;49.480;8.658;2023-04-25T05:19:08;10.70;;;5.57;;
54853;SDS011;40747;49.480;8.658;2023-04-25T05:21:34;8.20;;;4.75;;
54853;SDS011;40747;49.480;8.658;2023-04-25T05:23:59;8.80;;;5.47;;
54853;SDS011;40747;49.480;8.658;2023-04-25T05:26:25;7.10;;;4.93;;
54853;SDS011;40747;49.480;8.658;2023-04-25T05:28:50;11.55;;;5.80;;
54853;SDS011;40747;49.480;8.658;2023-04-25T05:31:16;11.15;;;4.93;;
54853;SDS011;40747;49.480;8.658;2023-04-25T05:33:41;9.60;;;5.70;;
54853;SDS011;40747;49.480;8.658;2023-04-25T05:36:07;9.75;;;5.30;;
54853;SDS011;40747;49.480;8.658;2023-04-25T05:38:32;9.70;;;5.00;;
54853;SDS011;40747;49.480;8.658;2023-04-25T05:40:57;7.05;;;3.85;;
54853;SDS011;40747;49.480;8.658;2023-04-25T05:43:23;9.07;;;4.90;;
54853;SDS011;40747;49.480;8.658;2023-04-25T05:45:48;9.95;;;5.65;;
54853;SDS011;40747;49.480;8.658;2023-04-25T05:48:13;10.50;;;5.47;;
54853;SDS011;40747;49.480;8.658;2023-04-25T05:50:39;8.35;;;5.20;;
54853;SDS011;40747;49.480;8.658;2023-04-25T05:53:05;9.95;;;5.28;;
54853;SDS011;40747;49.480;8.658;2023-04-25T05:55:30;7.38;;;4.40;;
54853;SDS011;40747;49.480;8.658;2023-04-25T05:57:56;11.70;;;6.13;;
54853;SDS011;40747;49.480;8.658;2023-04-25T06:00:21;9.15;;;5.32;;
54853;SDS011;40747;49.480;8.658;2023-04-25T06:02:48;10.52;;;5.30;;
54853;SDS011;40747;49.480;8.658;2023-04-25T06:05:13;12.15;;;6.20;;
54853;SDS011;40747;49.480;8.658;2023-04-25T06:07:38;11.13;;;6.22;;
54853;SDS011;40747;49.480;8.658;2023-04-25T06:10:04;13.70;;;6.03;;
54853;SDS011;40747;49.480;8.658;2023-04-25T06:12:32;8.32;;;4.93;;
54853;SDS011;40747;49.480;8.658;2023-04-25T06:14:58;13.45;;;6.45;;
54853;SDS011;40747;49.480;8.658;2023-04-25T06:17:23;11.82;;;6.32;;
54853;SDS011;40747;49.480;8.658;2023-04-25T06:19:48;10.57;;;4.60;;
54853;SDS011;40747;49.480;8.658;2023-04-25T06:22:14;11.15;;;6.30;;
54853;SDS011;40747;49.480;8.658;2023-04-25T06:24:39;9.70;;;5.75;;
54853;SDS011;40747;49.480;8.658;2023-04-25T06:27:04;13.48;;;6.68;;
54853;SDS011;40747;49.480;8.658;2023-04-25T06:29:30;11.27;;;6.05;;
54853;SDS011;40747;49.480;8.658;2023-04-25T06:31:55;10.93;;;6.35;;
54853;SDS011;40747;49.480;8.658;2023-04-25T06:34:20;9.98;;;5.97;;
54853;SDS011;40747;49.480;8.658;2023-04-25T06:36:46;9.77;;;5.07;;
54853;SDS011;40747;49.480;8.658;2023-04-25T06:39:11;8.57;;;5.18;;
54853;SDS011;40747;49.480;8.658;2023-04-25T06:41:36;15.82;;;6.13;;
54853;SDS011;40747;49.480;8.658;2023-04-25T06:44:02;14.70;;;7.47;;
54853;SDS011;40747;49.480;8.658;2023-04-25T06:46:27;12.07;;;5.82;;
54853;SDS011;40747;49.480;8.658;2023-04-25T06:48:52;13.80;;;6.13;;
54853;SDS011;40747;49.480;8.658;2023-04-25T06:51:18;12.27;;;7.70;;
54853;SDS011;40747;49.480;8.658;2023-04-25T06:53:43;13.57;;;6.65;;
54853;SDS011;40747;49.480;8.658;2023-04-25T06:56:08;11.88;;;5.38;;
54853;SDS011;40747;49.480;8.658;2023-04-25T06:58:33;13.50;;;5.63;;
54853;SDS011;40747;49.480;8.658;2023-04-25T07:00:59;13.07;;;5.38;;
54853;SDS011;40747;49.480;8.658;2023-04-25T07:03:24;6.13;;;4.30;;
54853;SDS011;40747;49.480;8.658;2023-04-25T07:05:50;7.63;;;4.45;;
54853;SDS011;40747;49.480;8.658;2023-04-25T07:08:15;10.52;;;5.00;;
54853;SDS011;40747;49.480;8.658;2023-04-25T07:10:41;9.60;;;4.80;;
54853;SDS011;40747;49.480;8.658;2023-04-25T07:13:06;7.25;;;3.97;;
54853;SDS011;40747;49.480;8.658;2023-04-25T07:15:31;11.02;;;4.65;;
54853;SDS011;40747;49.480;8.658;2023-04-25T07:17:57;13.23;;;4.55;;
54853;SDS011;40747;49.480;8.658;2023-04-25T07:20:22;7.85;;;4.20;;
54853;SDS011;40747;49.480;8.658;2023-04-25T07:22:47;8.82;;;4.63;;
54853;SDS011;40747;49.480;8.658;2023-04-25T07:25:13;9.98;;;4.03;;
54853;SDS011;40747;49.480;8.658;2023-04-25T07:27:38;9.15;;;4.20;;
54853;SDS011;40747;49.480;8.658;2023-04-25T07:30:04;10.30;;;4.88;;
54853;SDS011;40747;49.480;8.658;2023-04-25T07:32:30;12.10;;;4.53;;
54853;SDS011;40747;49.480;8.658;2023-04-25T07:34:55;9.02;;;4.32;;
54853;SDS011;40747;49.480;8.658;2023-04-25T07:37:21;16.45;;;6.03;;
54853;SDS011;40747;49.480;8.658;2023-04-25T07:39:46;13.07;;;4.43;;
54853;SDS011;40747;49.480;8.658;2023-04-25T07:42:12;8.15;;;4.07;;
54853;SDS011;40747;49.480;8.658;2023-04-25T07:44:38;8.82;;;4.35;;
54853;SDS011;40747;49.480;8.658;2023-04-25T07:47:08;18.00;;;4.57;;
54853;SDS011;40747;49.480;8.658;2023-04-25T07:49:34;11.27;;;4.43;;
54853;SDS011;40747;49.480;8.658;2023-04-25T07:52:01;13.15;;;5.30;;
54853;SDS011;40747;49.480;8.658;2023-04-25T07:54:27;13.20;;;4.68;;
54853;SDS011;40747;49.480;8.658;2023-04-25T07:56:52;11.27;;;3.75;;
54853;SDS011;40747;49.480;8.658;2023-04-25T07:59:18;9.02;;;4.90;;
54853;SDS011;40747;49.480;8.658;2023-04-25T08:01:43;14.35;;;4.45;;
54853;SDS011;40747;49.480;8.658;2023-04-25T08:04:08;14.68;;;4.88;;
54853;SDS011;40747;49.480;8.658;2023-04-25T08:06:34;13.63;;;5.47;;
54853;SDS011;40747;49.480;8.658;2023-04-25T08:08:59;7.53;;;3.72;;
54853;SDS011;40747;49.480;8.658;2023-04-25T08:11:25;9.25;;;4.80;;
54853;SDS011;40747;49.480;8.658;2023-04-25T08:13:50;10.27;;;4.60;;
54853;SDS011;40747;49.480;8.658;2023-04-25T08:16:16;9.88;;;4.68;;
54853;SDS011;40747;49.480;8.658;2023-04-25T08:18:41;13.27;;;4.88;;
54853;SDS011;40747;49.480;8.658;2023-04-25T08:21:06;13.27;;;5.22;;
54853;SDS011;40747;49.480;8.658;2023-04-25T08:23:33;7.70;;;4.43;;
54853;SDS011;40747;49.480;8.658;2023-04-25T08:25:59;11.35;;;5.20;;
54853;SDS011;40747;49.480;8.658;2023-04-25T08:28:24;10.75;;;3.85;;
54853;SDS011;40747;49.480;8.658;2023-04-25T08:30:50;10.07;;;3.70;;
54853;SDS011;40747;49.480;8.658;2023-04-25T08:33:15;9.20;;;4.18;;
54853;SDS011;40747;49.480;8.658;2023-04-25T08:35:40;9.63;;;4.13;;
54853;SDS011;40747;49.480;8.658;2023-04-25T08:38:06;8.98;;;3.55;;
54853;SDS011;40747;49.480;8.658;2023-04-25T08:40:34;5.95;;;3.28;;
54853;SDS011;40747;49.480;8.658;2023-04-25T08:43:02;7.00;;;3.17;;
54853;SDS011;40747;49.480;8.658;2023-04-25T08:45:31;5.07;;;3.03;;
54853;SDS011;40747;49.480;8.658;2023-04-25T08:47:57;6.43;;;2.88;;
54853;SDS011;40747;49.480;8.658;2023-04-25T08:50:23;8.80;;;3.95;;
54853;SDS011;40747;49.480;8.658;2023-04-25T08:52:51;7.05;;;3.92;;
54853;SDS011;40747;49.480;8.658;2023-04-25T08:55:18;3.95;;;2.47;;
54853;SDS011;40747;49.480;8.658;2023-04-25T08:57:45;9.77;;;3.17;;
54853;SDS011;40747;49.480;8.658;2023-04-25T09:00:12;7.60;;;2.70;;
54853;SDS011;40747;49.480;8.658;2023-04-25T09:02:41;4.53;;;3.03;;
54853;SDS011;40747;49.480;8.658;2023-04-25T09:05:07;5.05;;;2.67;;
54853;SDS011;40747;49.480;8.658;2023-04-25T09:07:34;8.48;;;2.78;;
54853;SDS011;40747;49.480;8.658;2023-04-25T09:10:00;3.97;;;2.03;;
54853;SDS011;40747;49.480;8.658;2023-04-25T09:12:28;6.38;;;2.38;;
54853;SDS011;40747;49.480;8.658;2023-04-25T09:15:08;8.05;;;2.13;;
54853;SDS011;40747;49.480;8.658;2023-04-25T09:17:35;6.93;;;2.83;;
54853;SDS011;40747;49.480;8.658;2023-04-25T09:20:12;8.50;;;2.85;;
54853;SDS011;40747;49.480;8.658;2023-04-25T09:22:38;6.68;;;2.78;;
54853;SDS011;40747;49.480;8.658;2023-04-25T09:25:10;8.75;;;2.78;;
54853;SDS011;40747;49.480;8.658;2023-04-25T09:27:42;3.47;;;2.08;;
54853;SDS011;40747;49.480;8.658;2023-04-25T09:30:15;10.15;;;3.13;;
54853;SDS011;40747;49.480;8.658;2023-04-25T09:32:41;9.38;;;2.78;;
54853;SDS011;40747;49.480;8.658;2023-04-25T09:35:08;6.25;;;2.72;;
54853;SDS011;40747;49.480;8.658;2023-04-25T09:37:33;6.10;;;3.10;;
54853;SDS011;40747;49.480;8.658;2023-04-25T09:40:00;5.80;;;2.60;;
54853;SDS011;40747;49.480;8.658;2023-04-25T09:42:31;5.93;;;2.72;;
54853;SDS011;40747;49.480;8.658;2023-04-25T09:44:57;6.18;;;2.08;;
54853;SDS011;40747;49.480;8.658;2023-04-25T09:47:26;5.43;;;2.60;;
54853;SDS011;40747;49.480;8.658;2023-04-25T09:49:52;6.15;;;2.83;;
54853;SDS011;40747;49.480;8.658;2023-04-25T09:52:19;5.97;;;2.65;;
54853;SDS011;40747;49.480;8.658;2023-04-25T09:54:46;12.20;;;3.55;;
54853;SDS011;40747;49.480;8.658;2023-04-25T09:57:14;6.13;;;2.50;;
54853;SDS011;40747;49.480;8.658;2023-04-25T09:59:44;5.70;;;2.67;;
54853;SDS011;40747;49.480;8.658;2023-04-25T10:02:12;10.57;;;2.65;;
54853;SDS011;40747;49.480;8.658;2023-04-25T10:04:38;7.93;;;2.92;;
54853;SDS011;40747;49.480;8.658;2023-04-25T10:07:06;7.13;;;2.08;;
54853;SDS011;40747;49.480;8.658;2023-04-25T10:09:32;6.47;;;2.38;;
54853;SDS011;40747;49.480;8.658;2023-04-25T10:11:59;5.72;;;2.65;;
54853;SDS011;40747;49.480;8.658;2023-04-25T10:14:25;7.75;;;3.25;;
54853;SDS011;40747;49.480;8.658;2023-04-25T10:16:51;10.20;;;3.22;;
54853;SDS011;40747;49.480;8.658;2023-04-25T10:19:20;11.73;;;3.47;;
54853;SDS011;40747;49.480;8.658;2023-04-25T10:21:50;7.05;;;3.65;;
54853;SDS011;40747;49.480;8.658;2023-04-25T10:24:19;4.03;;;2.60;;
54853;SDS011;40747;49.480;8.658;2023-04-25T10:26:45;9.00;;;2.92;;
54853;SDS011;40747;49.480;8.658;2023-04-25T10:29:12;6.68;;;3.03;;
54853;SDS011;40747;49.480;8.658;2023-04-25T10:31:44;5.32;;;2.63;;
54853;SDS011;40747;49.480;8.658;2023-04-25T10:34:11;3.67;;;2.20;;
54853;SDS011;40747;49.480;8.658;2023-04-25T10:36:36;5.88;;;2.85;;
54853;SDS011;40747;49.480;8.658;2023-04-25T10:39:05;5.90;;;3.08;;
54853;SDS011;40747;49.480;8.658;2023-04-25T10:41:45;14.90;;;3.08;;
54853;SDS011;40747;49.480;8.658;2023-04-25T10:44:13;5.03;;;2.95;;
54853;SDS011;40747;49.480;8.658;2023-04-25T10:46:38;9.60;;;3.22;;
54853;SDS011;40747;49.480;8.658;2023-04-25T10:49:04;14.23;;;3.88;;
54853;SDS011;40747;49.480;8.658;2023-04-25T10:51:32;7.80;;;2.55;;
54853;SDS011;40747;49.480;8.658;2023-04-25T10:56:29;7.53;;;2.92;;
54853;SDS011;40747;49.480;8.658;2023-04-25T11:01:42;9.00;;;2.38;;
54853;SDS011;40747;49.480;8.658;2023-04-25T11:07:05;4.35;;;2.00;;
54853;SDS011;40747;49.480;8.658;2023-04-25T11:09:38;6.85;;;1.85;;
54853;SDS011;40747;49.480;8.658;2023-04-25T11:12:06;6.63;;;2.28;;
54853;SDS011;40747;49.480;8.658;2023-04-25T11:14:33;5.18;;;2.08;;
54853;SDS011;40747;49.480;8.658;2023-04-25T11:16:59;7.30;;;2.17;;
54853;SDS011;40747;49.480;8.658;2023-04-25T11:19:26;3.70;;;2.33;;
54853;SDS011;40747;49.480;8.658;2023-04-25T11:21:56;7.93;;;1.83;;
54853;SDS011;40747;49.480;8.658;2023-04-25T11:24:33;3.90;;;2.25;;
54853;SDS011;40747;49.480;8.658;2023-04-25T11:27:03;6.00;;;1.70;;
54853;SDS011;40747;49.480;8.658;2023-04-25T11:29:29;3.38;;;1.45;;
54853;SDS011;40747;49.480;8.658;2023-04-25T11:31:56;2.65;;;1.70;;
54853;SDS011;40747;49.480;8.658;2023-04-25T11:34:26;3.10;;;1.80;;
54853;SDS011;40747;49.480;8.658;2023-04-25T11:36:57;8.30;;;2.03;;
54853;SDS011;40747;49.480;8.658;2023-04-25T11:39:26;3.45;;;1.98;;
54853;SDS011;40747;49.480;8.658;2023-04-25T11:41:52;6.00;;;2.33;;
54853;SDS011;40747;49.480;8.658;2023-04-25T11:44:19;2.38;;;1.73;;
54853;SDS011;40747;49.480;8.658;2023-04-25T11:46:45;4.15;;;1.45;;
54853;SDS011;40747;49.480;8.658;2023-04-25T11:49:11;6.38;;;2.20;;
54853;SDS011;40747;49.480;8.658;2023-04-25T11:51:46;8.85;;;1.85;;
54853;SDS011;40747;49.480;8.658;2023-04-25T11:54:12;6.13;;;1.67;;
54853;SDS011;40747;49.480;8.658;2023-04-25T11:56:42;3.33;;;1.88;;
54853;SDS011;40747;49.480;8.658;2023-04-25T11:59:08;3.88;;;1.60;;
54853;SDS011;40747;49.480;8.658;2023-04-25T12:01:34;3.42;;;1.75;;
54853;SDS011;40747;49.480;8.658;2023-04-25T12:06:47;4.47;;;1.80;;
54853;SDS011;40747;49.480;8.658;2023-04-25T12:09:14;5.10;;;1.73;;
54853;SDS011;40747;49.480;8.658;2023-04-25T12:14:23;3.80;;;1.80;;
54853;SDS011;40747;49.480;8.658;2023-04-25T12:16:54;4.97;;;2.20;;
54853;SDS011;40747;49.480;8.658;2023-04-25T12:19:21;5.15;;;1.52;;
54853;SDS011;40747;49.480;8.658;2023-04-25T12:21:46;5.22;;;2.08;;
54853;SDS011;40747;49.480;8.658;2023-04-25T12:24:14;5.65;;;1.77;;
54853;SDS011;40747;49.480;8.658;2023-04-25T12:29:27;3.38;;;1.75;;
54853;SDS011;40747;49.480;8.658;2023-04-25T12:31:54;4.30;;;2.00;;
54853;SDS011;40747;49.480;8.658;2023-04-25T12:34:20;3.90;;;1.92;;
54853;SDS011;40747;49.480;8.658;2023-04-25T12:36:46;4.07;;;2.03;;
54853;SDS011;40747;49.480;8.658;2023-04-25T12:39:16;3.47;;;2.53;;
54853;SDS011;40747;49.480;8.658;2023-04-25T12:41:48;7.55;;;2.72;;
54853;SDS011;40747;49.480;8.658;2023-04-25T12:44:14;3.97;;;2.13;;
54853;SDS011;40747;49.480;8.658;2023-04-25T12:46:40;2.15;;;1.63;;
54853;SDS011;40747;49.480;8.658;2023-04-25T12:49:06;2.97;;;1.92;;
54853;SDS011;40747;49.480;8.658;2023-04-25T12:51:33;5.45;;;2.63;;
54853;SDS011;40747;49.480;8.658;2023-04-25T12:53:59;5.45;;;2.60;;
54853;SDS011;40747;49.480;8.658;2023-04-25T12:56:25;4.43;;;2.33;;
54853;SDS011;40747;49.480;8.658;2023-04-25T12:58:52;5.07;;;2.45;;
54853;SDS011;40747;49.480;8.658;2023-04-25T13:01:18;4.10;;;2.20;;
54853;SDS011;40747;49.480;8.658;2023-04-25T13:03:44;9.25;;;2.60;;
54853;SDS011;40747;49.480;8.658;2023-04-25T13:06:09;2.92;;;2.20;;
54853;SDS011;40747;49.480;8.658;2023-04-25T13:08:35;4.32;;;2.13;;
54853;SDS011;40747;49.480;8.658;2023-04-25T13:11:02;6.40;;;2.67;;
54853;SDS011;40747;49.480;8.658;2023-04-25T13:13:28;7.30;;;2.03;;
54853;SDS011;40747;49.480;8.658;2023-04-25T13:15:54;5.10;;;2.25;;
54853;SDS011;40747;49.480;8.658;2023-04-25T13:18:19;4.32;;;2.35;;
54853;SDS011;40747;49.480;8.658;2023-04-25T13:20:44;5.55;;;2.33;;
54853;SDS011;40747;49.480;8.658;2023-04-25T13:23:11;6.35;;;2.45;;
54853;SDS011;40747;49.480;8.658;2023-04-25T13:25:36;6.05;;;2.47;;
54853;SDS011;40747;49.480;8.658;2023-04-25T13:28:01;4.07;;;2.72;;
54853;SDS011;40747;49.480;8.658;2023-04-25T13:30:27;4.72;;;2.70;;
54853;SDS011;40747;49.480;8.658;2023-04-25T13:32:53;6.00;;;2.13;;
54853;SDS011;40747;49.480;8.658;2023-04-25T13:35:21;6.95;;;2.85;;
54853;SDS011;40747;49.480;8.658;2023-04-25T13:37:46;7.60;;;2.55;;
54853;SDS011;40747;49.480;8.658;2023-04-25T13:40:11;2.85;;;2.13;;
54853;SDS011;40747;49.480;8.658;2023-04-25T13:42:37;6.78;;;2.22;;
54853;SDS011;40747;49.480;8.658;2023-04-25T13:45:03;4.38;;;2.05;;
54853;SDS011;40747;49.480;8.658;2023-04-25T13:47:29;4.47;;;1.90;;
54853;SDS011;40747;49.480;8.658;2023-04-25T13:49:55;5.82;;;2.33;;
54853;SDS011;40747;49.480;8.658;2023-04-25T13:52:20;7.00;;;1.80;;
54853;SDS011;40747;49.480;8.658;2023-04-25T13:54:46;5.28;;;2.95;;
54853;SDS011;40747;49.480;8.658;2023-04-25T13:57:11;4.63;;;2.80;;
54853;SDS011;40747;49.480;8.658;2023-04-25T13:59:37;5.10;;;2.55;;
54853;SDS011;40747;49.480;8.658;2023-04-25T14:02:03;9.45;;;2.83;;
54853;SDS011;40747;49.480;8.658;2023-04-25T14:04:28;3.28;;;2.40;;
54853;SDS011;40747;49.480;8.658;2023-04-25T14:06:53;4.88;;;2.28;;
54853;SDS011;40747;49.480;8.658;2023-04-25T14:09:19;5.10;;;2.22;;
54853;SDS011;40747;49.480;8.658;2023-04-25T14:11:45;5.35;;;2.38;;
54853;SDS011;40747;49.480;8.658;2023-04-25T14:14:11;5.53;;;2.28;;
54853;SDS011;40747;49.480;8.658;2023-04-25T14:16:37;5.15;;;3.00;;
54853;SDS011;40747;49.480;8.658;2023-04-25T14:19:02;3.47;;;2.50;;
54853;SDS011;40747;49.480;8.658;2023-04-25T14:21:28;5.60;;;2.78;;
54853;SDS011;40747;49.480;8.658;2023-04-25T14:23:56;5.25;;;2.30;;
54853;SDS011;40747;49.480;8.658;2023-04-25T14:26:21;3.33;;;1.83;;
54853;SDS011;40747;49.480;8.658;2023-04-25T14:28:47;8.23;;;2.90;;
54853;SDS011;40747;49.480;8.658;2023-04-25T14:31:12;7.57;;;2.42;;
54853;SDS011;40747;49.480;8.658;2023-04-25T14:33:37;4.65;;;2.30;;
54853;SDS011;40747;49.480;8.658;2023-04-25T14:36:06;2.78;;;1.90;;
54853;SDS011;40747;49.480;8.658;2023-04-25T14:38:32;3.97;;;2.65;;
54853;SDS011;40747;49.480;8.658;2023-04-25T14:40:57;4.32;;;2.47;;
54853;SDS011;40747;49.480;8.658;2023-04-25T14:43:22;8.77;;;2.65;;
54853;SDS011;40747;49.480;8.658;2023-04-25T14:45:48;6.43;;;2.95;;
54853;SDS011;40747;49.480;8.658;2023-04-25T14:48:13;3.85;;;2.08;;
54853;SDS011;40747;49.480;8.658;2023-04-25T14:50:39;9.18;;;2.75;;
54853;SDS011;40747;49.480;8.658;2023-04-25T14:53:05;3.60;;;2.63;;
54853;SDS011;40747;49.480;8.658;2023-04-25T14:55:30;8.15;;;2.80;;